Time;durP1;ratioP1;P1;durP2;ratioP2;P2;SDS_P1;SDS_P2;PMS_P1;PMS_P2;Temp;Humidity;BMP_temperature;BMP_pressure;BME280_temperature;BME280_humidity;BME280_pressure;Samples;Min_cycle;Max_cycle;Signal;HPM_P1;HPM_P2
2022/03/15 00:01:12;;;;;;;16.38;11.07;;;;;;;13.49;44.63;102725.59;4997915;28;20038;-79
2022/03/15 00:03:57;;;;;;;21.38;14.70;;;;;;;13.25;44.29;102717.31;4996257;28;20046;-79
2022/03/15 00:06:41;;;;;;;34.10;14.40;;;;;;;13.25;44.71;102706.38;4998007;28;20042;-79
2022/03/15 00:09:26;;;;;;;30.08;13.75;;;;;;;12.91;44.70;102708.19;4995521;28;20046;-79
2022/03/15 00:12:13;;;;;;;24.40;15.90;;;;;;;12.78;44.85;102706.91;4997165;28;20042;-78
2022/03/15 00:14:58;;;;;;;26.55;15.20;;;;;;;12.91;45.48;102710.09;4997981;28;20042;-79
2022/03/15 00:17:44;;;;;;;15.48;10.18;;;;;;;13.40;47.55;102710.91;4995617;28;20046;-79
2022/03/15 00:20:29;;;;;;;13.25;6.10;;;;;;;13.66;48.42;102714.25;4995990;28;20415;-79
2022/03/15 00:23:14;;;;;;;;;;;;;;;13.79;47.42;102716.31;4998358;28;20058;-79
2022/03/15 00:26:00;;;;;;;22.90;13.25;;;;;;;13.61;45.57;102714.28;5015427;28;19918;-79
2022/03/15 00:28:45;;;;;;;28.38;16.58;;;;;;;13.46;44.61;102701.53;4999181;28;20042;-78
2022/03/15 00:31:30;;;;;;;;;;;;;;;13.49;45.56;102703.72;4997229;28;20042;-79
2022/03/15 00:34:17;;;;;;;35.50;16.23;;;;;;;13.45;44.27;102702.66;4995882;28;19914;-78
2022/03/15 00:37:02;;;;;;;30.10;14.65;;;;;;;13.58;45.94;102698.44;5000045;28;20034;-79
2022/03/15 00:39:53;;;;;;;22.70;13.27;;;;;;;13.59;45.39;102698.16;4996241;28;20057;-79
2022/03/15 00:42:38;;;;;;;32.22;15.57;;;;;;;13.63;46.48;102684.72;4995984;28;20050;-79
2022/03/15 00:45:28;;;;;;;22.52;14.48;;;;;;;13.83;47.43;102697.41;4999901;28;20034;-79
2022/03/15 00:48:13;;;;;;;21.67;13.13;;;;;;;13.89;47.47;102696.25;4998270;28;20046;-79
2022/03/15 00:50:57;;;;;;;24.02;14.57;;;;;;;13.91;47.19;102694.88;4996581;28;20038;-78
2022/03/15 00:53:42;;;;;;;27.30;15.52;;;;;;;13.93;47.18;102694.56;4996486;28;20051;-79
2022/03/15 00:56:27;;;;;;;16.23;10.57;;;;;;;13.96;46.94;102691.25;4998357;28;20038;-79
2022/03/15 00:59:12;;;;;;;34.60;15.57;;;;;;;13.96;46.45;102694.00;4996227;28;20422;-79
2022/03/15 01:01:57;;;;;;;22.25;12.82;;;;;;;13.98;47.01;102691.78;4996735;28;20046;-79
2022/03/15 01:04:42;;;;;;;22.77;13.32;;;;;;;13.96;47.06;102683.06;4998582;28;20046;-78
2022/03/15 01:07:28;;;;;;;21.70;13.70;;;;;;;13.80;45.00;102678.84;4996385;28;20047;-77
2022/03/15 01:10:12;;;;;;;21.85;14.68;;;;;;;13.38;44.13;102660.34;4996204;28;20042;-78
2022/03/15 01:12:57;;;;;;;;;;;;;;;13.10;44.72;102667.41;4996846;28;20046;-79
2022/03/15 01:15:45;;;;;;;18.58;9.10;;;;;;;13.11;45.59;102669.84;4997415;28;20577;-79
2022/03/15 01:18:31;;;;;;;18.52;11.40;;;;;;;13.47;47.23;102670.38;5000222;28;20069;-78
2022/03/15 01:21:16;;;;;;;21.25;13.10;;;;;;;13.70;47.81;102675.09;4998586;28;20042;-79
2022/03/15 01:24:06;;;;;;;12.27;7.90;;;;;;;13.82;47.85;102669.22;4996657;28;20046;-79
2022/03/15 01:26:52;;;;;;;13.38;9.23;;;;;;;13.82;47.15;102671.97;4996190;28;20046;-79
2022/03/15 01:29:37;;;;;;;20.23;13.65;;;;;;;13.99;47.42;102679.72;4996067;28;20057;-79
2022/03/15 01:32:21;;;;;;;14.20;9.45;;;;;;;13.92;46.99;102668.31;5000573;28;20043;-79
2022/03/15 01:35:06;;;;;;;8.00;5.53;;;;;;;14.07;47.61;102674.44;5000083;28;20049;-79
2022/03/15 01:37:51;;;;;;;8.45;5.35;;;;;;;14.21;47.47;102663.63;5000066;28;20129;-79
2022/03/15 01:40:36;;;;;;;13.23;8.13;;;;;;;14.16;47.16;102665.59;5000131;28;20053;-79
2022/03/15 01:43:21;;;;;;;10.18;7.07;;;;;;;14.21;47.42;102669.09;5000106;28;20061;-79
2022/03/15 01:46:07;;;;;;;11.23;6.88;;;;;;;14.25;47.40;102672.88;5002282;28;20050;-79
2022/03/15 01:48:52;;;;;;;11.95;7.60;;;;;;;14.40;46.98;102667.25;5000210;28;20045;-79
2022/03/15 01:51:40;;;;;;;11.38;8.65;;;;;;;14.45;46.90;102675.38;4999919;28;20049;-79
2022/03/15 01:54:25;;;;;;;22.38;11.68;;;;;;;14.36;47.06;102668.09;4999614;28;20548;-79
2022/03/15 01:57:10;;;;;;;16.38;11.13;;;;;;;14.26;46.47;102662.75;4999515;28;20034;-80
2022/03/15 01:59:57;;;;;;;18.52;12.60;;;;;;;13.91;43.79;102662.03;5004382;28;20046;-79
2022/03/15 02:02:42;;;;;;;22.52;14.98;;;;;;;13.60;43.07;102663.44;5002028;28;20050;-79
2022/03/15 02:05:27;;;;;;;28.58;14.25;;;;;;;13.23;43.13;102658.56;5001705;28;20050;-79
2022/03/15 02:08:13;;;;;;;;;;;;;;;13.30;44.61;102653.59;4999744;28;20046;-79
2022/03/15 02:10:58;;;;;;;11.57;8.43;;;;;;;13.55;46.84;102658.84;5002287;28;20289;-78
2022/03/15 02:13:44;;;;;;;;;;;;;;;13.46;44.92;102652.34;4999435;28;20045;-79
2022/03/15 02:16:29;;;;;;;27.90;12.77;;;;;;;13.72;47.07;102644.72;4998887;28;19913;-79
2022/03/15 02:19:14;;;;;;;16.05;8.98;;;;;;;13.67;46.22;102642.03;5002302;28;20046;-78
2022/03/15 02:21:59;;;;;;;12.57;6.75;;;;;;;13.83;47.33;102642.69;4999475;28;20113;-79
2022/03/15 02:24:44;;;;;;;8.27;5.93;;;;;;;13.97;47.17;102647.19;4998071;28;20053;-79
2022/03/15 02:27:30;;;;;;;12.70;8.25;;;;;;;14.03;47.46;102642.47;5002641;28;20414;-79
2022/03/15 02:30:14;;;;;;;;;;;;;;;14.12;47.22;102643.47;4999175;28;20057;-79
2022/03/15 02:32:59;;;;;;;12.65;7.40;;;;;;;14.26;46.99;102649.88;5012559;28;19913;-79
2022/03/15 02:35:44;;;;;;;;;;;;;;;14.22;46.71;102654.28;5003863;28;20053;-81
2022/03/15 02:38:28;;;;;;;12.23;8.48;;;;;;;14.24;46.41;102643.06;5014710;28;19914;-79
2022/03/15 02:41:14;;;;;;;;;;;;;;;14.20;46.20;102640.09;4998420;28;20071;-79
2022/03/15 02:43:58;;;;;;;18.70;10.77;;;;;;;14.14;46.69;102641.25;5011652;28;19914;-79
2022/03/15 02:46:48;;;;;;;14.15;9.82;;;;;;;14.11;46.77;102641.84;4998358;28;20038;-79
2022/03/15 02:49:33;;;;;;;11.75;8.63;;;;;;;14.09;46.94;102642.13;4998513;28;20073;-79
2022/03/15 02:52:17;;;;;;;15.32;10.02;;;;;;;14.09;47.06;102644.06;4998981;28;20053;-79
2022/03/15 02:55:04;;;;;;;13.10;8.30;;;;;;;13.90;46.80;102633.06;5000706;28;20511;-79
2022/03/15 02:57:49;;;;;;;23.05;12.95;;;;;;;13.85;46.31;102637.78;4998863;28;20042;-79
2022/03/15 03:00:35;;;;;;;11.45;8.63;;;;;;;13.91;46.92;102633.88;5004038;28;20050;-79
2022/03/15 03:03:22;;;;;;;16.92;10.07;;;;;;;13.91;47.04;102634.69;4998516;28;20122;-79
2022/03/15 03:06:07;;;;;;;16.13;10.35;;;;;;;13.91;46.98;102647.56;4998053;28;20043;-79
2022/03/15 03:08:52;;;;;;;;;;;;;;;13.77;45.81;102641.13;4998607;28;20565;-79
2022/03/15 03:11:36;;;;;;;20.40;12.65;;;;;;;13.61;45.72;102643.22;5000565;28;19914;-78
2022/03/15 03:14:22;;;;;;;16.17;11.85;;;;;;;13.50;45.23;102636.22;4998458;28;20042;-79
2022/03/15 03:17:08;;;;;;;24.40;13.55;;;;;;;13.52;45.65;102637.53;4998727;28;20050;-79
2022/03/15 03:19:53;;;;;;;16.95;11.88;;;;;;;13.48;46.14;102639.22;5000459;28;20423;-78
2022/03/15 03:22:39;;;;;;;12.95;7.72;;;;;;;13.55;46.74;102636.97;4999012;28;20046;-79
2022/03/15 03:25:25;;;;;;;19.85;11.77;;;;;;;13.54;45.85;102629.06;4996430;28;20049;-79
2022/03/15 03:28:13;;;;;;;17.55;10.55;;;;;;;13.52;46.27;102626.59;5000605;28;20039;-78
2022/03/15 03:30:57;;;;;;;19.08;11.15;;;;;;;13.47;46.38;102629.38;4998007;28;20046;-78
2022/03/15 03:33:42;;;;;;;12.23;7.97;;;;;;;13.29;45.32;102621.91;4997199;28;20050;-79
2022/03/15 03:36:27;;;;;;;18.77;11.35;;;;;;;13.33;45.98;102620.22;4998205;28;20118;-79
2022/03/15 03:39:12;;;;;;;14.07;7.90;;;;;;;13.42;47.01;102620.41;4997411;28;20046;-79
2022/03/15 03:41:58;;;;;;;;;;;;;;;13.28;45.51;102620.28;4998102;28;20049;-78
2022/03/15 03:44:42;;;;;;;12.07;9.18;;;;;;;13.43;46.84;102611.13;4997428;28;19914;-79
2022/03/15 03:47:27;;;;;;;14.23;8.48;;;;;;;13.40;45.90;102615.25;4998682;28;20061;-79
2022/03/15 03:50:12;;;;;;;18.17;11.07;;;;;;;13.36;45.96;102607.94;4996393;28;20049;-78
2022/03/15 03:52:57;;;;;;;18.02;10.60;;;;;;;13.33;46.24;102603.03;4999288;28;20494;-78
2022/03/15 03:55:41;;;;;;;20.60;12.10;;;;;;;13.24;45.70;102597.38;4998911;28;20038;-79
2022/03/15 03:58:26;;;;;;;10.60;7.45;;;;;;;13.27;46.52;102604.97;4996893;28;20422;-79
2022/03/15 04:01:11;;;;;;;16.55;7.75;;;;;;;13.32;47.24;102607.66;5001245;28;20053;-79
2022/03/15 04:04:02;;;;;;;11.48;6.45;;;;;;;13.28;46.17;102607.44;5022060;22;20053;-75
2022/03/15 04:06:48;;;;;;;22.05;12.95;;;;;;;13.12;44.70;102597.72;5001357;28;20057;-74
2022/03/15 04:09:32;;;;;;;10.75;7.50;;;;;;;13.03;45.12;102599.44;4993231;28;20038;-76
2022/03/15 04:12:21;;;;;;;16.90;10.63;;;;;;;13.16;46.61;102611.63;4992542;28;20053;-75
2022/03/15 04:15:06;;;;;;;11.85;8.77;;;;;;;13.19;46.81;102602.88;4992198;28;20501;-76
2022/03/15 04:17:51;;;;;;;;;;;;;;;13.37;47.76;102610.34;4993432;28;20065;-76
2022/03/15 04:20:36;;;;;;;15.23;9.40;;;;;;;13.29;46.53;102608.25;4992806;28;19917;-76
2022/03/15 04:23:20;;;;;;;8.30;5.57;;;;;;;13.33;47.30;102617.50;4993021;28;20053;-75
2022/03/15 04:26:05;;;;;;;9.77;7.38;;;;;;;13.45;47.59;102620.69;4992891;28;20045;-75
2022/03/15 04:28:52;;;;;;;15.20;8.57;;;;;;;13.41;47.58;102614.13;4992916;28;20420;-75
2022/03/15 04:31:37;;;;;;;16.75;11.20;;;;;;;13.34;47.07;102610.94;4992750;28;20049;-75
2022/03/15 04:34:22;;;;;;;7.72;5.50;;;;;;;13.43;48.03;102616.59;4982189;28;20035;-76
2022/03/15 04:37:06;;;;;;;13.85;7.35;;;;;;;13.43;47.27;102616.59;4986976;28;20045;-76
2022/03/15 04:39:53;;;;;;;14.90;8.73;;;;;;;13.35;47.22;102618.03;4992114;28;20057;-75
2022/03/15 04:42:38;;;;;;;20.67;13.45;;;;;;;13.26;46.68;102611.53;4992701;28;20050;-76
2022/03/15 04:45:24;;;;;;;13.85;8.57;;;;;;;13.28;47.35;102603.88;4992830;28;20410;-76
2022/03/15 04:48:08;;;;;;;9.85;6.80;;;;;;;13.32;47.42;102612.31;4992554;28;20053;-76
2022/03/15 04:50:53;;;;;;;10.10;7.03;;;;;;;13.43;47.78;102601.00;4992460;28;20057;-75
2022/03/15 04:53:38;;;;;;;12.73;7.53;;;;;;;13.49;48.01;102604.50;4992698;28;20049;-76
2022/03/15 04:56:23;;;;;;;5.53;3.92;;;;;;;13.50;47.99;102612.44;4992548;28;20053;-75
2022/03/15 04:59:08;;;;;;;8.15;5.07;;;;;;;13.52;47.98;102607.47;4982684;28;20053;-74
2022/03/15 05:01:52;;;;;;;8.07;5.03;;;;;;;13.56;47.77;102610.47;4992309;28;20073;-75
2022/03/15 05:04:37;;;;;;;7.22;4.30;;;;;;;13.58;47.62;102608.25;4991425;28;20065;-75
2022/03/15 05:07:22;;;;;;;12.90;7.95;;;;;;;13.54;47.90;102613.47;4995972;28;20405;-75
2022/03/15 05:13:11;;;;;;;10.65;6.57;;;;;;;13.51;47.72;102610.50;5002032;28;20369;-75
2022/03/15 05:15:55;;;;;;;;;;;;;;;13.37;47.29;102615.81;4997400;28;20057;-76
2022/03/15 05:18:41;;;;;;;12.10;8.32;;;;;;;13.40;47.69;102615.25;5002062;28;19909;-74
2022/03/15 05:21:26;;;;;;;23.73;10.68;;;;;;;13.37;47.57;102615.00;4995108;28;20437;-75
2022/03/15 05:24:11;;;;;;;17.92;11.15;;;;;;;13.29;47.20;102613.72;4982490;28;20050;-76
2022/03/15 05:26:57;;;;;;;12.05;7.65;;;;;;;13.23;46.70;102606.66;4979167;28;20039;-75
2022/03/15 05:29:42;;;;;;;16.77;12.13;;;;;;;13.32;47.44;102613.13;4995348;28;20072;-75
2022/03/15 05:32:27;;;;;;;13.60;7.10;;;;;;;13.33;48.00;102612.03;4993976;28;20039;-76
2022/03/15 05:35:12;;;;;;;;;;;;;;;13.24;46.99;102616.50;5006327;28;20061;-76
2022/03/15 05:37:57;;;;;;;13.98;9.95;;;;;;;13.10;46.42;102626.44;5006298;28;19914;-75
2022/03/15 05:40:42;;;;;;;18.25;12.73;;;;;;;12.79;45.01;102625.81;4996060;28;20065;-76
2022/03/15 05:43:27;;;;;;;28.63;16.23;;;;;;;12.82;46.17;102626.06;4995283;28;20042;-75
2022/03/15 05:46:13;;;;;;;14.75;8.82;;;;;;;12.87;46.73;102627.94;4990535;28;20050;-75
2022/03/15 05:48:58;;;;;;;23.88;14.43;;;;;;;13.02;48.20;102627.00;4996038;28;20049;-74
2022/03/15 05:51:43;;;;;;;22.40;13.40;;;;;;;13.06;48.27;102630.78;5001433;28;20050;-73
2022/03/15 05:54:29;;;;;;;13.93;9.55;;;;;;;13.14;48.88;102627.50;4995809;28;20042;-69
2022/03/15 05:57:14;;;;;;;12.88;6.95;;;;;;;13.22;49.11;102632.34;4990128;28;20049;-70
2022/03/15 05:59:59;;;;;;;11.57;7.03;;;;;;;13.32;49.21;102640.47;4995845;28;20045;-69
2022/03/15 06:02:44;;;;;;;8.65;4.93;;;;;;;13.40;49.16;102639.03;4995832;28;20054;-69
2022/03/15 06:05:30;;;;;;;16.60;9.45;;;;;;;13.39;49.10;102642.88;4996080;28;20065;-70
2022/03/15 06:08:15;;;;;;;31.17;17.77;;;;;;;13.23;47.32;102633.97;4995893;28;20703;-69
2022/03/15 06:11:02;;;;;;;30.67;17.75;;;;;;;12.92;45.48;102643.47;4995897;28;20497;-69
2022/03/15 06:13:47;;;;;;;27.67;17.85;;;;;;;12.30;45.91;102642.19;4995850;28;20485;-70
2022/03/15 06:16:32;;;;;;;23.83;16.70;;;;;;;11.74;46.64;102642.34;4995161;28;20038;-70
2022/03/15 06:19:17;;;;;;;26.92;14.95;;;;;;;11.44;47.44;102642.38;4995877;28;20042;-70
2022/03/15 06:22:03;;;;;;;38.67;21.30;;;;;;;11.33;47.65;102641.53;4996040;28;20042;-70
2022/03/15 06:24:47;;;;;;;22.20;14.85;;;;;;;11.39;47.56;102645.09;5002619;28;20049;-71
2022/03/15 06:27:32;;;;;;;29.35;16.05;;;;;;;11.51;47.64;102657.34;4995021;28;20042;-70
2022/03/15 06:30:19;;;;;;;41.90;22.00;;;;;;;11.40;48.16;102652.19;4995962;28;20425;-70
2022/03/15 06:33:04;;;;;;;34.38;19.15;;;;;;;11.65;47.98;102654.88;4999481;28;20046;-71
2022/03/15 06:35:49;;;;;;;;;;;;;;;11.88;47.63;102656.25;4995401;28;20042;-70
2022/03/15 06:38:33;;;;;;;24.92;17.20;;;;;;;12.07;47.38;102664.63;4995377;28;20381;-70
2022/03/15 06:41:19;;;;;;;44.28;19.25;;;;;;;12.02;47.37;102664.66;4992841;28;20042;-70
2022/03/15 06:44:04;;;;;;;30.52;19.00;;;;;;;12.04;47.49;102667.94;4974497;28;20402;-70
2022/03/15 06:46:48;;;;;;;31.90;16.70;;;;;;;12.03;47.63;102666.28;4975241;28;20047;-70
2022/03/15 06:49:34;;;;;;;24.52;16.55;;;;;;;11.99;47.55;102672.28;4975205;28;20046;-70
2022/03/15 06:52:19;;;;;;;42.58;20.88;;;;;;;11.73;48.01;102678.06;4975305;28;20050;-70
2022/03/15 06:55:04;;;;;;;23.38;14.75;;;;;;;11.67;48.84;102679.97;4975129;28;20038;-70
2022/03/15 06:57:49;;;;;;;45.17;20.02;;;;;;;11.76;49.06;102683.78;4975026;28;20047;-70
2022/03/15 07:00:34;;;;;;;;;;;;;;;12.08;49.89;102690.81;4975428;28;20047;-71
2022/03/15 07:03:18;;;;;;;37.67;19.30;;;;;;;12.18;48.81;102686.16;4974939;28;19914;-71
2022/03/15 07:06:03;;;;;;;29.50;15.38;;;;;;;12.31;49.76;102695.66;4974939;28;20054;-71
2022/03/15 07:08:48;;;;;;;28.42;15.05;;;;;;;12.24;48.67;102689.69;4974885;28;20055;-70
2022/03/15 07:11:34;;;;;;;32.38;15.07;;;;;;;12.25;48.31;102699.47;4974935;28;20046;-70
2022/03/15 07:14:18;;;;;;;33.58;17.92;;;;;;;12.29;48.43;102690.47;4988393;28;20046;-70
2022/03/15 07:17:04;;;;;;;;;;;;;;;12.31;48.43;102701.91;4975184;28;20105;-70
2022/03/15 07:19:48;;;;;;;29.33;17.33;;;;;;;12.33;47.83;102704.38;4982691;28;20397;-70
2022/03/15 07:22:33;;;;;;;25.67;13.10;;;;;;;12.28;47.72;102705.22;4990060;28;20478;-70
2022/03/15 07:25:20;;;;;;;21.42;14.80;;;;;;;12.28;47.69;102713.41;4993063;28;20047;-70
2022/03/15 07:28:04;;;;;;;33.30;16.60;;;;;;;12.39;47.58;102711.47;4993730;28;20046;-70
2022/03/15 07:30:50;;;;;;;25.05;14.07;;;;;;;12.30;46.50;102711.19;4993786;28;20050;-70
2022/03/15 07:33:35;;;;;;;32.10;16.90;;;;;;;12.25;46.84;102713.13;4993894;28;20498;-70
2022/03/15 07:36:21;;;;;;;21.85;10.85;;;;;;;12.41;47.87;102709.25;4993763;28;20047;-70
2022/03/15 07:39:06;;;;;;;32.97;19.52;;;;;;;12.24;46.95;102701.38;4993585;28;20046;-70
2022/03/15 07:41:52;;;;;;;16.55;9.23;;;;;;;12.49;48.36;102705.97;4993721;28;20046;-70
2022/03/15 07:44:37;;;;;;;;;;;;;;;12.59;48.82;102707.81;4994151;28;20069;-70
2022/03/15 07:47:21;;;;;;;30.48;18.75;;;;;;;12.31;49.00;102706.56;4994513;28;20316;-72
2022/03/15 07:50:06;;;;;;;;;;;;;;;12.16;48.97;102712.88;4993832;28;20038;-72
2022/03/15 07:52:52;;;;;;;33.47;19.83;;;;;;;12.26;49.23;102709.31;4993467;28;19914;-72
2022/03/15 07:55:38;;;;;;;38.00;19.38;;;;;;;12.11;49.82;102712.06;4993439;28;20050;-72
2022/03/15 07:58:23;;;;;;;31.88;20.08;;;;;;;12.06;49.87;102712.91;4993441;28;20401;-70
2022/03/15 08:01:08;;;;;;;30.40;16.25;;;;;;;12.11;49.79;102715.63;4993457;28;20042;-70
2022/03/15 08:03:53;;;;;;;37.47;21.25;;;;;;;12.17;49.44;102721.88;4993351;28;20046;-70
2022/03/15 08:06:39;;;;;;;42.25;22.83;;;;;;;11.99;49.97;102723.25;4993362;28;20042;-69
2022/03/15 08:09:24;;;;;;;26.02;16.00;;;;;;;12.04;50.20;102725.19;4993104;28;20050;-70
2022/03/15 08:12:09;;;;;;;31.52;15.23;;;;;;;11.90;50.90;102725.75;4993196;28;20042;-70
2022/03/15 08:14:54;;;;;;;23.60;15.93;;;;;;;11.94;50.91;102729.53;4993015;28;20046;-69
2022/03/15 08:17:40;;;;;;;;;;;;;;;11.91;51.16;102723.84;4993562;28;20042;-70
2022/03/15 08:20:32;;;;;;;28.23;17.63;;;;;;;11.94;51.39;102737.72;4993116;28;19914;-70
2022/03/15 08:23:18;;;;;;;30.08;17.75;;;;;;;12.14;50.93;102733.34;4992429;28;20494;-69
2022/03/15 08:26:03;;;;;;;31.13;19.13;;;;;;;12.08;51.21;102731.72;4995930;28;20046;-70
2022/03/15 08:28:48;;;;;;;23.60;15.63;;;;;;;12.07;51.64;102730.91;4992839;28;20043;-70
2022/03/15 08:31:33;;;;;;;27.60;18.95;;;;;;;11.88;52.31;102730.66;4992720;28;20050;-70
2022/03/15 08:34:18;;;;;;;33.08;15.15;;;;;;;11.98;52.06;102722.47;4992909;28;20038;-70
2022/03/15 08:37:04;;;;;;;17.83;12.60;;;;;;;12.27;51.60;102722.66;4992749;28;20042;-70
2022/03/15 08:39:49;;;;;;;39.28;16.15;;;;;;;12.35;51.34;102724.81;4992057;28;20042;-70
2022/03/15 08:42:34;;;;;;;18.48;13.13;;;;;;;12.11;52.05;102723.81;4992816;28;20046;-70
2022/03/15 08:45:19;;;;;;;;;;;;;;;11.94;52.84;102724.09;4993116;28;20038;-70
2022/03/15 08:48:06;;;;;;;29.75;18.80;;;;;;;12.05;52.32;102718.63;4992589;28;20281;-71
2022/03/15 08:50:51;;;;;;;31.48;18.50;;;;;;;11.92;52.67;102709.13;4992550;28;20038;-70
2022/03/15 08:53:36;;;;;;;28.60;19.63;;;;;;;12.10;52.28;102710.44;4994775;28;20046;-70
2022/03/15 08:56:21;;;;;;;25.13;16.15;;;;;;;12.08;52.74;102713.47;4992915;28;20046;-70
2022/03/15 08:59:07;;;;;;;20.50;14.52;;;;;;;12.11;52.66;102712.88;4992609;28;20050;-70
2022/03/15 09:01:52;;;;;;;24.17;14.48;;;;;;;12.25;52.44;102713.94;4992658;28;20042;-70
2022/03/15 09:04:38;;;;;;;;;;;;;;;12.26;52.61;102718.31;4992833;28;20046;-70
2022/03/15 09:07:23;;;;;;;23.92;17.75;;;;;;;12.31;52.72;102712.00;4992536;28;19918;-70
2022/03/15 09:10:10;;;;;;;26.17;16.80;;;;;;;12.43;52.64;102718.81;4992590;28;20042;-70
2022/03/15 09:12:55;;;;;;;17.50;10.05;;;;;;;12.72;51.77;102718.94;4992509;28;20502;-70
2022/03/15 09:15:40;;;;;;;16.67;11.25;;;;;;;12.60;52.28;102717.63;4997959;28;20042;-70
2022/03/15 09:18:27;;;;;;;18.50;12.48;;;;;;;12.51;52.29;102713.84;4992341;28;20042;-70
2022/03/15 09:21:12;;;;;;;24.02;15.70;;;;;;;12.62;52.00;102709.97;4992203;28;20042;-70
2022/03/15 09:23:57;;;;;;;32.30;15.63;;;;;;;12.51;52.67;102711.94;4992413;28;20043;-70
2022/03/15 09:26:43;;;;;;;25.58;15.48;;;;;;;12.74;52.15;102714.03;4992224;28;20042;-70
2022/03/15 09:29:27;;;;;;;22.42;11.68;;;;;;;12.93;51.71;102705.19;4992182;28;20409;-70
2022/03/15 09:32:12;;;;;;;22.95;12.48;;;;;;;12.79;51.93;102705.81;4992257;28;20038;-70
2022/03/15 09:34:57;;;;;;;;;;;;;;;12.84;51.75;102702.25;4992731;28;20054;-70
2022/03/15 09:37:45;;;;;;;24.75;16.95;;;;;;;12.66;52.02;102700.13;4992781;28;19913;-70
2022/03/15 09:40:31;;;;;;;26.38;16.52;;;;;;;12.79;51.59;102694.91;4991004;28;20047;-70
2022/03/15 09:43:21;;;;;;;26.05;14.48;;;;;;;12.83;51.68;102695.97;4992134;28;20417;-71
2022/03/15 09:46:06;;;;;;;24.83;17.65;;;;;;;12.91;51.18;102691.81;4992069;28;20038;-71
2022/03/15 09:48:54;;;;;;;26.90;17.45;;;;;;;12.81;51.63;102689.13;4991969;28;20046;-71
2022/03/15 09:51:39;;;;;;;23.23;16.08;;;;;;;12.97;50.85;102696.13;4996573;28;20064;-70
2022/03/15 09:54:25;;;;;;;16.45;12.45;;;;;;;13.01;50.92;102690.91;4995784;28;20042;-70
2022/03/15 09:57:11;;;;;;;25.83;16.23;;;;;;;13.00;51.15;102681.13;4995442;28;20042;-70
2022/03/15 09:59:59;;;;;;;22.20;15.45;;;;;;;13.09;51.37;102677.50;4995533;28;20053;-70
2022/03/15 10:02:44;;;;;;;23.33;14.70;;;;;;;13.15;51.11;102679.13;4995471;28;20042;-70
2022/03/15 10:05:29;;;;;;;21.20;15.40;;;;;;;13.18;50.80;102675.00;4986283;23;20069;-69
2022/03/15 10:08:17;;;;;;;15.48;9.95;;;;;;;13.32;50.27;102677.91;4956478;29;20039;-69
2022/03/15 10:11:02;;;;;;;21.77;15.90;;;;;;;13.31;50.30;102673.56;4956593;29;20058;-69
2022/03/15 10:13:47;;;;;;;22.40;13.07;;;;;;;13.34;50.54;102664.78;4956590;29;20043;-69
2022/03/15 10:16:34;;;;;;;13.90;9.95;;;;;;;13.55;50.46;102664.31;4980627;28;20046;-69
2022/03/15 10:19:19;;;;;;;25.33;16.15;;;;;;;13.40;50.12;102659.00;4983444;28;20062;-70
2022/03/15 10:22:08;;;;;;;26.98;16.30;;;;;;;13.44;50.01;102659.22;4971671;28;20047;-70
2022/03/15 10:24:54;;;;;;;25.05;15.25;;;;;;;13.40;50.16;102664.44;4982614;28;20043;-70
2022/03/15 10:27:39;;;;;;;23.35;16.35;;;;;;;13.44;49.71;102662.78;4992863;28;20405;-70
2022/03/15 10:30:25;;;;;;;17.70;11.73;;;;;;;13.49;50.00;102657.25;4994887;28;20042;-70
2022/03/15 10:33:11;;;;;;;20.42;15.15;;;;;;;13.51;49.73;102657.78;4994883;28;20042;-69
2022/03/15 10:35:57;;;;;;;20.35;14.23;;;;;;;13.64;49.36;102659.03;4995111;28;20042;-69
2022/03/15 10:38:47;;;;;;;13.70;9.40;;;;;;;13.80;49.01;102656.97;4995000;28;20042;-69
2022/03/15 10:41:45;;;;;;;22.15;13.60;;;;;;;13.88;49.00;102646.19;4994776;28;20497;-69
2022/03/15 10:44:29;;;;;;;26.83;15.60;;;;;;;13.70;49.30;102645.03;4994820;28;20046;-71
2022/03/15 10:47:17;;;;;;;15.07;10.45;;;;;;;13.75;48.86;102641.44;4985328;28;20043;-71
2022/03/15 10:50:05;;;;;;;22.98;14.93;;;;;;;13.84;48.20;102644.34;4974063;28;20050;-68
2022/03/15 10:52:51;;;;;;;28.98;16.13;;;;;;;13.93;47.73;102642.59;4980425;28;20038;-70
2022/03/15 10:55:36;;;;;;;21.85;14.05;;;;;;;13.88;47.22;102631.72;4994772;28;20082;-69
2022/03/15 10:58:21;;;;;;;;;;;;;;;13.88;47.06;102628.97;4995026;28;20401;-69
2022/03/15 11:01:09;;;;;;;22.77;12.93;;;;;;;14.06;47.09;102628.22;5000278;28;19913;-69
2022/03/15 11:03:56;;;;;;;19.60;13.05;;;;;;;14.16;46.64;102628.09;4993741;28;20047;-68
2022/03/15 11:06:44;;;;;;;21.85;13.32;;;;;;;14.22;46.76;102629.66;4984897;28;20403;-68
2022/03/15 11:09:34;;;;;;;22.95;13.48;;;;;;;14.09;46.72;102622.97;4977423;28;20038;-69
2022/03/15 11:12:22;;;;;;;24.45;13.93;;;;;;;14.14;46.95;102611.16;4975224;28;20390;-69
2022/03/15 11:15:09;;;;;;;19.95;12.60;;;;;;;14.10;46.94;102613.69;4986101;28;20054;-69
2022/03/15 11:17:58;;;;;;;23.80;13.05;;;;;;;14.25;46.32;102612.66;4978300;28;20042;-69
2022/03/15 11:20:48;;;;;;;22.45;12.75;;;;;;;14.22;46.88;102607.75;4994049;28;20042;-69
2022/03/15 11:23:39;;;;;;;19.40;13.00;;;;;;;14.28;46.08;102601.13;4994134;28;20046;-68
2022/03/15 11:26:28;;;;;;;19.17;12.68;;;;;;;14.33;46.02;102597.50;4990068;28;20034;-68
2022/03/15 11:29:20;;;;;;;16.80;12.25;;;;;;;14.33;45.67;102592.84;4976829;28;20046;-69
2022/03/15 11:32:06;;;;;;;29.55;11.63;;;;;;;14.45;45.89;102582.31;4978311;28;20046;-69
2022/03/15 11:34:51;;;;;;;16.60;10.15;;;;;;;14.58;46.32;102575.28;4974336;28;20050;-69
2022/03/15 11:37:37;;;;;;;41.80;7.95;;;;;;;14.67;47.05;102567.22;4974112;28;20507;-68
2022/03/15 11:40:22;;;;;;;14.10;9.75;;;;;;;14.67;46.09;102562.56;4974160;28;20057;-69
2022/03/15 11:43:25;;;;;;;;;;;;;;;14.73;45.59;102563.28;4974770;28;20069;-69
2022/03/15 11:46:21;;;;;;;19.92;11.98;;;;;;;14.74;45.37;102552.03;4974394;28;19913;-69
2022/03/15 11:49:27;;;;;;;20.65;13.55;;;;;;;14.81;45.02;102554.38;4974014;28;20047;-70
2022/03/15 11:52:34;;;;;;;18.83;14.07;;;;;;;14.84;44.92;102548.31;4974154;28;20051;-70
2022/03/15 11:55:30;;;;;;;18.65;10.93;;;;;;;14.93;45.48;102539.09;4974170;28;20398;-70
2022/03/15 11:58:24;;;;;;;15.30;10.13;;;;;;;15.01;45.82;102534.88;4974149;28;20043;-70
2022/03/15 12:01:12;;;;;;;20.05;12.82;;;;;;;15.08;45.96;102534.50;4973853;28;20505;-70
2022/03/15 12:03:59;;;;;;;19.48;13.80;;;;;;;15.08;45.57;102534.50;4976801;28;20413;-69
2022/03/15 12:06:54;;;;;;;15.55;10.82;;;;;;;15.18;45.57;102529.66;4983252;28;20042;-69
2022/03/15 12:09:46;;;;;;;20.98;13.50;;;;;;;15.19;44.27;102523.03;4981567;28;20050;-69
2022/03/15 12:12:33;;;;;;;27.95;14.27;;;;;;;15.18;43.76;102520.59;4983861;28;20031;-69
2022/03/15 12:15:22;;;;;;;17.20;11.02;;;;;;;15.35;45.00;102513.41;4980783;28;20062;-69
2022/03/15 12:21:08;;;;;;;18.35;11.35;;;;;;;15.30;43.55;102510.75;4973865;28;20043;-70
2022/03/15 12:23:54;;;;;;;19.30;11.60;;;;;;;15.41;44.71;102501.22;4973652;28;20047;-69
2022/03/15 12:26:47;;;;;;;13.90;9.98;;;;;;;15.48;44.78;102494.53;4973802;28;20054;-69
2022/03/15 12:29:32;;;;;;;15.15;8.23;;;;;;;15.52;45.15;102490.91;4973304;28;20053;-69
2022/03/15 12:32:20;;;;;;;13.82;9.02;;;;;;;17.43;40.19;102476.38;4958359;28;20054;-69
2022/03/15 12:35:08;;;;;;;28.70;12.68;;;;;;;18.13;37.74;102480.13;4969830;28;20046;-70
2022/03/15 12:38:13;;;;;;;19.10;13.38;;;;;;;18.85;36.20;102487.69;4975339;28;20042;-70
2022/03/15 12:40:58;;;;;;;21.42;13.55;;;;;;;18.95;34.55;102473.56;4972399;28;20418;-70
2022/03/15 12:43:52;;;;;;;18.77;12.18;;;;;;;20.26;32.08;102467.81;4973307;28;20042;-70
2022/03/15 12:46:39;;;;;;;18.45;12.27;;;;;;;21.21;31.21;102476.78;4973069;28;20518;-70
2022/03/15 12:49:24;;;;;;;21.25;11.93;;;;;;;21.89;28.95;102459.56;4969241;28;20043;-69
2022/03/15 12:52:14;;;;;;;15.50;11.07;;;;;;;21.20;29.80;102454.97;4981093;28;20038;-70